Sand Point, AK

3:32 PM AKDT on September 19, 2014 (GMT -0800)
Sand Point | Change Station
CLOSE
Current Station
Airport
Location: Sand Point,
Elevation: 23 ft
Nearby Weather Stations

Elev 23 ft 55.31 °N, 160.52 °W | Updated 16 minutes ago

Mostly Cloudy
Mostly Cloudy
54 °F
Feels Like 54 °F
N
17
Wind Variable Wind from NNW

Today
High -- | Low -- °F
--% Chance of Precip.
Yesterday
High -- | Low -- °F
Precip. -- in
8:22 AM 8:48 PM
Waning Crescent, 16% visible
Pressure 29.54 in
Visibility 10.0 miles
Clouds Scattered Clouds 2400 ft
Mostly Cloudy 3700 ft
Mostly Cloudy 6000 ft
Dew Point 46 °F
Humidity 77%
Rainfall 0.00 in
Snow Depth 2 in , 4 in , 0 in
UV 2 out of 12
Pollen Not available.
Air Quality Not available.
Flu Activity Not available.
METAR PASD 192316Z 33015KT 10SM SCT024 BKN037 BKN060 12/08 A2954 RMK AO1 WEA: NONE (KH)

More Conditions Fewer Conditions

Pressure 29.54 in
Visibility 10.0 miles
Clouds Scattered Clouds 2400 ft
Mostly Cloudy 3700 ft
Mostly Cloudy 6000 ft
Dew Point 46 °F
Humidity 77%
Rainfall 0.00 in
Snow Depth 2 in , 4 in , 0 in
UV 2 out of 12
Pollen Not available.
Air Quality Not available.
Flu Activity Not available.
METAR PASD 192316Z 33015KT 10SM SCT024 BKN037 BKN060 12/08 A2954 RMK AO1 WEA: NONE (KH)

More Conditions Fewer Conditions

10-Day Weather Forecast

Almanac

Astronomy

Sep. 19, 2014 Rise Set
Actual Time 8:22 AM AKDT 8:48 PM AKDT
Civil Twilight 7:45 AM AKDT 9:24 PM AKDT
Nautical Twilight 7:01 AM AKDT 10:08 PM AKDT
Astronomical Twilight 6:14 AM AKDT 10:54 PM AKDT
Moon 3:44 AM AKDT 6:52 PM AKDT
Length of Visible Light 13h 39m
Length of Day
12h 25m
Tomorrow will be 4m 30s shorter.
Waning Crescent, 16% of the Moon is Illuminated
Today
Waning Crescent
Sep 24
New
Oct 1
First Quarter
Oct 8
Full
Oct 15
Last Quarter

Today's Extremes

State Highs State Lows

Community

WunderPhotos

Upload Photos

1,754,724 photos uploaded!

Nearby

Snow Depth

Station Depth Elevation
Susitna Valley High 2 in 375 ft
MF Bradley River 4 in 2300 ft
Upper Tsaina River 0 in 1750 ft
Long Lake 0 in 820 ft
Fort Yukon 0 in 430 ft

Earthquake Activity

City Distance Mag. Time & Date
No recent earthquake activity has been reported nearby.
Minimum magnitude displayed is 2.5.

Coastal Water Temperatures

Place Temperature
No Stations Reporting

Nearby Weather Stations